createdAt,value
2019-05-15T00:00:08.887Z,2.67
2019-05-15T00:02:38.813Z,2.60
2019-05-15T00:05:09.039Z,3.07
2019-05-15T00:07:39.076Z,2.87
2019-05-15T00:10:08.758Z,2.73
2019-05-15T00:12:39.556Z,2.67
2019-05-15T00:15:09.365Z,2.40
2019-05-15T00:17:39.418Z,2.83
2019-05-15T00:20:09.981Z,3.10
2019-05-15T00:22:39.079Z,3.20
2019-05-15T00:25:09.221Z,3.00
2019-05-15T00:27:38.878Z,2.80
2019-05-15T00:30:08.664Z,2.93
2019-05-15T00:32:39.430Z,3.73
2019-05-15T00:35:09.339Z,2.47
2019-05-15T00:37:38.851Z,2.50
2019-05-15T00:40:08.899Z,3.10
2019-05-15T00:42:38.332Z,2.70
2019-05-15T00:45:09.533Z,3.17
2019-05-15T00:47:39.751Z,2.67
2019-05-15T00:50:08.951Z,3.20
2019-05-15T00:52:39.071Z,2.40
2019-05-15T00:55:08.765Z,2.70
2019-05-15T00:57:39.351Z,2.83
2019-05-15T01:00:08.207Z,3.10
2019-05-15T01:02:38.763Z,3.30
2019-05-15T01:05:08.122Z,3.07
2019-05-15T01:07:38.938Z,2.87
2019-05-15T01:10:09.933Z,3.30
2019-05-15T01:12:38.339Z,3.07
2019-05-15T01:15:08.981Z,2.97
2019-05-15T01:17:39.738Z,2.90
2019-05-15T01:20:08.614Z,3.30
2019-05-15T01:22:39.278Z,2.90
2019-05-15T01:25:08.745Z,2.70
2019-05-15T01:27:38.557Z,3.60
2019-05-15T01:30:08.971Z,3.40
2019-05-15T01:32:39.443Z,3.30
2019-05-15T01:35:09.572Z,3.70
2019-05-15T01:37:39.094Z,3.20
2019-05-15T01:40:09.206Z,3.07
2019-05-15T01:42:38.615Z,3.40
2019-05-15T01:45:08.660Z,3.03
2019-05-15T01:47:38.870Z,3.27
2019-05-15T01:50:09.350Z,2.93
2019-05-15T01:52:39.115Z,3.20
2019-05-15T01:55:09.107Z,3.33
2019-05-15T01:57:38.400Z,3.20
2019-05-15T02:00:08.718Z,3.33
2019-05-15T02:02:39.012Z,2.90
2019-05-15T02:05:08.457Z,3.10
2019-05-15T02:07:39.211Z,3.20
2019-05-15T02:10:09.202Z,3.43
2019-05-15T02:12:38.801Z,3.47
2019-05-15T02:15:08.583Z,3.20
2019-05-15T02:17:39.312Z,3.30
2019-05-15T02:20:08.349Z,2.90
2019-05-15T02:22:42.101Z,3.10
2019-05-15T02:25:08.568Z,3.63
2019-05-15T02:27:39.291Z,3.07
2019-05-15T02:30:17.956Z,3.00
2019-05-15T02:32:39.436Z,2.97
2019-05-15T02:35:09.996Z,3.53
2019-05-15T02:37:40.887Z,3.00
2019-05-15T02:40:10.130Z,3.10
2019-05-15T02:42:39.909Z,3.30
2019-05-15T02:45:10.066Z,3.40
2019-05-15T02:47:39.652Z,3.27
2019-05-15T02:50:10.665Z,3.27
2019-05-15T02:52:40.725Z,3.27
2019-05-15T02:55:09.525Z,3.53
2019-05-15T02:57:39.462Z,3.43
2019-05-15T03:00:10.711Z,3.37
2019-05-15T03:02:41.217Z,3.60
2019-05-15T03:05:09.704Z,3.20
2019-05-15T03:07:40.370Z,3.80
2019-05-15T03:10:09.522Z,3.87
2019-05-15T03:12:40.823Z,3.60
2019-05-15T03:15:09.575Z,3.57
2019-05-15T03:17:40.352Z,3.30
2019-05-15T03:20:10.653Z,3.43
2019-05-15T03:22:40.496Z,3.23
2019-05-15T03:25:10.486Z,3.80
2019-05-15T03:27:39.906Z,3.23
2019-05-15T03:30:13.326Z,3.83
2019-05-15T03:32:46.744Z,3.27
2019-05-15T03:35:14.172Z,3.27
2019-05-15T03:37:39.897Z,4.10
2019-05-15T03:40:10.179Z,4.00
2019-05-15T03:42:39.602Z,3.50
2019-05-15T03:45:10.060Z,3.80
2019-05-15T03:47:40.205Z,3.57
2019-05-15T03:50:09.256Z,3.77
2019-05-15T03:52:39.454Z,3.23
2019-05-15T03:55:10.758Z,3.43
2019-05-15T03:57:40.058Z,3.87
2019-05-15T04:00:09.574Z,3.20
2019-05-15T04:02:39.449Z,4.20
2019-05-15T04:05:11.612Z,4.13
2019-05-15T04:07:39.811Z,3.53
2019-05-15T04:10:09.836Z,3.30
2019-05-15T04:12:40.410Z,3.50
2019-05-15T04:15:10.006Z,3.27
2019-05-15T04:17:40.118Z,3.57
2019-05-15T04:20:10.267Z,3.57
2019-05-15T04:22:40.032Z,2.90
2019-05-15T04:25:10.035Z,3.20
2019-05-15T04:27:40.826Z,3.50
2019-05-15T04:30:10.627Z,3.10
2019-05-15T04:32:40.073Z,2.73
2019-05-15T04:35:09.497Z,4.00
2019-05-15T04:37:40.581Z,3.60
2019-05-15T04:40:09.444Z,3.33
2019-05-15T04:42:39.711Z,3.10
2019-05-15T04:45:10.372Z,3.13
2019-05-15T04:47:40.052Z,3.80
2019-05-15T04:50:09.333Z,3.50
2019-05-15T04:52:39.436Z,4.33
2019-05-15T04:55:10.226Z,3.27
2019-05-15T04:57:40.099Z,3.97
2019-05-15T05:00:09.805Z,3.47
2019-05-15T05:02:39.957Z,3.43
2019-05-15T05:05:10.166Z,3.67
2019-05-15T05:07:39.532Z,3.70
2019-05-15T05:10:09.693Z,4.97
2019-05-15T05:12:44.617Z,3.67
2019-05-15T05:15:13.067Z,3.83
2019-05-15T05:17:41.498Z,3.53
2019-05-15T05:20:10.144Z,3.27
2019-05-15T05:22:39.474Z,3.63
2019-05-15T05:25:08.467Z,3.60
2019-05-15T05:27:38.392Z,4.10
2019-05-15T05:30:08.641Z,3.90
2019-05-15T05:32:39.096Z,3.93
2019-05-15T05:35:08.867Z,3.47
2019-05-15T05:37:39.016Z,3.47
2019-05-15T05:40:08.020Z,3.57
2019-05-15T05:42:38.948Z,3.83
2019-05-15T05:45:09.237Z,3.63
2019-05-15T05:47:38.165Z,3.57
2019-05-15T05:50:08.162Z,3.73
2019-05-15T05:52:38.710Z,4.20
2019-05-15T05:55:08.868Z,3.37
2019-05-15T05:57:38.350Z,3.57
2019-05-15T06:00:09.359Z,3.57
2019-05-15T06:02:47.009Z,2.93
2019-05-15T06:05:08.347Z,2.83
2019-05-15T06:07:38.658Z,2.77
2019-05-15T06:10:08.828Z,2.80
2019-05-15T06:12:38.889Z,3.00
2019-05-15T06:15:08.962Z,2.83
2019-05-15T06:17:39.241Z,2.83
2019-05-15T06:20:08.151Z,2.33
2019-05-15T06:22:38.673Z,2.47
2019-05-15T06:25:11.240Z,2.60
2019-05-15T06:27:39.089Z,2.37
2019-05-15T06:30:08.811Z,2.50
2019-05-15T06:32:39.930Z,2.47
2019-05-15T06:35:08.877Z,2.67
2019-05-15T06:37:39.582Z,3.00
2019-05-15T06:40:08.484Z,2.73
2019-05-15T06:42:39.335Z,2.37
2019-05-15T06:45:08.427Z,2.10
2019-05-15T06:47:39.205Z,2.00
2019-05-15T06:50:08.592Z,1.70
2019-05-15T06:52:38.106Z,2.00
2019-05-15T06:55:09.129Z,1.80
2019-05-15T06:57:39.734Z,1.60
2019-05-15T07:00:08.901Z,1.50
2019-05-15T07:02:38.197Z,1.80
2019-05-15T07:05:07.904Z,1.67
2019-05-15T07:07:38.764Z,1.53
2019-05-15T07:10:09.037Z,1.80
2019-05-15T07:12:39.274Z,1.27
2019-05-15T07:15:09.121Z,1.30
2019-05-15T07:17:39.257Z,1.20
2019-05-15T07:20:08.749Z,1.37
2019-05-15T07:22:39.043Z,1.47
2019-05-15T07:25:08.877Z,1.27
2019-05-15T07:27:39.100Z,1.37
2019-05-15T07:30:11.301Z,1.40
2019-05-15T07:32:39.612Z,1.13
2019-05-15T07:35:08.604Z,1.13
2019-05-15T07:37:38.848Z,0.97
2019-05-15T07:40:08.428Z,1.20
2019-05-15T07:42:38.665Z,1.30
2019-05-15T07:45:08.271Z,1.40
2019-05-15T07:47:38.579Z,1.20
2019-05-15T07:50:08.703Z,1.10
2019-05-15T07:52:39.463Z,1.10
2019-05-15T07:55:08.851Z,1.20
2019-05-15T07:57:39.306Z,1.30
2019-05-15T08:00:08.411Z,1.20
2019-05-15T08:02:38.011Z,1.10
2019-05-15T08:05:08.407Z,1.47
2019-05-15T08:07:38.820Z,1.60
2019-05-15T08:10:08.707Z,1.27
2019-05-15T08:12:39.175Z,1.10
2019-05-15T08:15:09.052Z,1.30
2019-05-15T08:17:58.016Z,1.37
2019-05-15T08:20:09.047Z,1.37
2019-05-15T08:22:38.417Z,1.37
2019-05-15T08:25:11.531Z,1.70
2019-05-15T08:27:38.291Z,1.17
2019-05-15T08:30:08.946Z,1.77
2019-05-15T08:32:38.921Z,1.60
2019-05-15T08:35:08.139Z,1.70
2019-05-15T08:37:38.417Z,1.30
2019-05-15T08:40:08.829Z,1.50
2019-05-15T08:42:41.590Z,1.23
2019-05-15T08:45:09.268Z,1.40
2019-05-15T08:47:38.601Z,1.20
2019-05-15T08:50:08.863Z,1.40
2019-05-15T08:52:39.428Z,1.77
2019-05-15T08:55:08.643Z,1.77
2019-05-15T08:57:38.343Z,1.47
2019-05-15T09:00:09.640Z,1.70
2019-05-15T09:02:38.387Z,1.43
2019-05-15T09:05:08.542Z,1.40
2019-05-15T09:07:38.325Z,1.60
2019-05-15T09:10:09.007Z,1.50
2019-05-15T09:12:38.805Z,1.17
2019-05-15T09:15:08.337Z,1.50
2019-05-15T09:17:39.607Z,1.43
2019-05-15T09:20:08.133Z,1.33
2019-05-15T09:22:38.244Z,1.33
2019-05-15T09:25:09.003Z,1.33
2019-05-15T09:27:38.279Z,1.50
2019-05-15T09:30:08.690Z,1.40
2019-05-15T09:32:39.253Z,1.40
2019-05-15T09:35:08.432Z,1.20
2019-05-15T09:37:38.511Z,1.47
2019-05-15T09:40:08.794Z,1.40
2019-05-15T09:42:38.572Z,2.00
2019-05-15T09:45:09.081Z,1.47
2019-05-15T09:47:39.726Z,1.50
2019-05-15T09:50:08.530Z,1.10
2019-05-15T09:52:38.875Z,1.27
2019-05-15T09:55:08.579Z,1.80
2019-05-15T09:57:38.599Z,1.47
2019-05-15T10:00:09.071Z,1.50
2019-05-15T10:02:39.396Z,1.40
2019-05-15T10:05:11.261Z,1.30
2019-05-15T10:07:40.432Z,1.73
2019-05-15T10:10:08.822Z,1.20
2019-05-15T10:12:38.648Z,1.30
2019-05-15T10:15:11.200Z,1.40
2019-05-15T10:17:37.883Z,1.23
2019-05-15T10:20:08.934Z,1.73
2019-05-15T10:22:38.054Z,1.40
2019-05-15T10:25:08.349Z,1.53
2019-05-15T10:27:39.543Z,1.67
2019-05-15T10:30:09.139Z,1.57
2019-05-15T10:32:39.463Z,1.67
2019-05-15T10:35:24.085Z,1.30
2019-05-15T10:37:39.095Z,1.07
2019-05-15T10:40:09.189Z,1.30
2019-05-15T10:42:39.863Z,1.53
2019-05-15T10:45:09.002Z,1.37
2019-05-15T10:47:38.881Z,1.40
2019-05-15T10:50:08.526Z,1.60
2019-05-15T10:52:38.216Z,1.30
2019-05-15T10:55:09.177Z,1.30
2019-05-15T10:57:42.321Z,1.37
2019-05-15T11:00:07.940Z,1.33
2019-05-15T11:02:39.119Z,1.23
2019-05-15T11:05:09.347Z,1.53
2019-05-15T11:07:39.345Z,1.50
2019-05-15T11:10:08.589Z,2.07
2019-05-15T11:12:37.260Z,1.87
2019-05-15T11:15:05.698Z,1.30
2019-05-15T11:17:34.311Z,1.67
2019-05-15T11:20:02.739Z,1.60
2019-05-15T11:22:31.194Z,1.30
2019-05-15T11:24:59.605Z,1.47
2019-05-15T11:27:31.389Z,1.33
2019-05-15T11:29:58.584Z,1.30
2019-05-15T11:32:29.398Z,1.47
2019-05-15T11:34:58.299Z,1.40
2019-05-15T11:37:28.262Z,1.77
2019-05-15T11:39:59.015Z,1.53
2019-05-15T11:42:28.869Z,1.40
2019-05-15T11:44:58.475Z,1.50
2019-05-15T11:47:27.888Z,1.30
2019-05-15T11:49:58.565Z,1.57
2019-05-15T11:52:29.218Z,1.40
2019-05-15T11:54:58.970Z,1.40
2019-05-15T11:57:39.548Z,1.40
2019-05-15T11:59:59.587Z,1.40
2019-05-15T12:02:29.282Z,1.77
2019-05-15T12:04:58.393Z,1.47
2019-05-15T12:07:28.948Z,1.70
2019-05-15T12:09:58.058Z,1.40
2019-05-15T12:12:31.278Z,1.60
2019-05-15T12:14:56.800Z,2.00
2019-05-15T12:17:25.169Z,1.47
2019-05-15T12:19:56.857Z,1.63
2019-05-15T12:22:23.685Z,2.03
2019-05-15T12:24:52.156Z,1.90
2019-05-15T12:27:20.523Z,1.40
2019-05-15T12:29:49.286Z,1.43
2019-05-15T12:32:28.461Z,1.73
2019-05-15T12:34:49.528Z,1.43
2019-05-15T12:37:19.776Z,1.50
2019-05-15T12:39:49.277Z,1.90
2019-05-15T12:59:49.045Z,1.60
2019-05-15T13:02:18.733Z,1.53
2019-05-15T13:04:47.329Z,1.60
2019-05-15T13:07:16.860Z,1.67
2019-05-15T13:09:45.847Z,1.67
2019-05-15T13:12:14.294Z,1.23
2019-05-15T13:14:42.739Z,1.13
2019-05-15T13:17:11.140Z,1.67
2019-05-15T13:19:39.499Z,1.27
2019-05-15T13:22:17.548Z,1.57
2019-05-15T13:24:38.698Z,1.80
2019-05-15T13:27:07.800Z,1.70
2019-05-15T13:29:36.237Z,1.73
2019-05-15T13:32:04.680Z,1.70
2019-05-15T13:34:33.110Z,1.70
2019-05-15T13:37:01.484Z,2.50
2019-05-15T13:39:29.943Z,1.60
2019-05-15T13:41:58.562Z,1.77
2019-05-15T13:44:29.268Z,1.90
2019-05-15T13:46:58.178Z,1.77
2019-05-15T13:49:28.162Z,1.70
2019-05-15T13:51:59.135Z,1.80
2019-05-15T13:54:28.637Z,1.70
2019-05-15T13:56:58.167Z,1.87
2019-05-15T13:59:28.574Z,2.17
2019-05-15T14:01:59.426Z,2.13
2019-05-15T14:04:29.697Z,2.10
2019-05-15T14:06:57.886Z,2.30
2019-05-15T14:09:32.550Z,2.00
2019-05-15T14:11:59.435Z,1.90
2019-05-15T14:14:28.647Z,1.97
2019-05-15T14:16:59.226Z,1.83
2019-05-15T14:19:27.987Z,1.80
2019-05-15T14:21:58.503Z,1.77
2019-05-15T14:24:26.838Z,1.60
2019-05-15T14:26:55.225Z,2.30
2019-05-15T14:29:25.469Z,1.80
2019-05-15T14:31:53.860Z,1.90
2019-05-15T14:34:22.442Z,1.97
2019-05-15T14:36:53.829Z,1.70
2019-05-15T14:39:21.154Z,2.00
2019-05-15T14:41:49.520Z,1.70
2019-05-15T14:44:21.554Z,1.80
2019-05-15T14:46:50.828Z,1.57
2019-05-15T14:49:18.279Z,1.73
2019-05-15T14:51:48.478Z,2.07
2019-05-15T14:54:18.330Z,2.03
2019-05-15T14:56:48.615Z,1.90
2019-05-15T14:59:16.850Z,1.50
2019-05-15T15:01:45.283Z,1.90
2019-05-15T15:04:13.626Z,1.80
2019-05-15T15:06:42.023Z,1.50
2019-05-15T15:09:10.544Z,1.60
2019-05-15T15:11:38.959Z,1.53
2019-05-15T15:14:08.695Z,1.80
2019-05-15T15:16:38.490Z,1.70
2019-05-15T15:19:07.116Z,1.83
2019-05-15T15:21:38.175Z,1.60
2019-05-15T15:24:08.177Z,1.37
2019-05-15T15:26:35.762Z,1.93
2019-05-15T15:29:04.223Z,1.43
2019-05-15T15:31:32.594Z,1.40
2019-05-15T15:34:01.045Z,1.67
2019-05-15T15:36:29.585Z,1.70
2019-05-15T15:38:58.826Z,1.77
2019-05-15T15:41:28.593Z,1.73
2019-05-15T15:43:58.611Z,1.70
2019-05-15T15:46:28.677Z,1.80
2019-05-15T15:48:59.306Z,1.60
2019-05-15T15:51:28.588Z,1.60
2019-05-15T15:53:57.200Z,1.33
2019-05-15T15:56:25.571Z,1.27
2019-05-15T15:58:54.003Z,1.40
2019-05-15T16:01:25.688Z,1.77
2019-05-15T16:03:52.771Z,1.50
2019-05-15T16:06:21.402Z,1.57
2019-05-15T16:08:55.480Z,1.43
2019-05-15T16:11:19.935Z,1.50
2019-05-15T16:13:49.652Z,1.70
2019-05-15T16:16:18.404Z,1.60
2019-05-15T16:18:49.196Z,1.73
2019-05-15T16:21:19.300Z,1.50
2019-05-15T16:23:48.100Z,1.30
2019-05-15T16:26:19.328Z,1.57
2019-05-15T16:28:48.872Z,1.50
2019-05-15T16:31:18.603Z,1.80
2019-05-15T16:33:48.036Z,1.60
2019-05-15T16:36:18.331Z,1.67
2019-05-15T16:38:48.183Z,1.70
2019-05-15T16:41:18.476Z,1.93
2019-05-15T16:43:48.586Z,2.93
2019-05-15T16:46:19.285Z,1.70
2019-05-15T16:48:49.975Z,1.93
2019-05-15T16:51:18.475Z,3.40
2019-05-15T16:53:48.781Z,2.77
2019-05-15T16:56:18.997Z,1.53
2019-05-15T16:58:48.113Z,1.70
2019-05-15T17:01:18.683Z,1.40
2019-05-15T17:03:48.513Z,2.00
2019-05-15T17:06:18.634Z,2.13
2019-05-15T17:08:48.729Z,1.20
2019-05-15T17:11:19.688Z,1.40
2019-05-15T17:13:50.399Z,1.57
2019-05-15T17:16:18.919Z,1.40
2019-05-15T17:18:48.602Z,1.40
2019-05-15T17:21:18.975Z,1.60
2019-05-15T17:23:48.923Z,1.80
2019-05-15T17:26:18.863Z,1.67
2019-05-15T17:28:47.616Z,1.63
2019-05-15T17:31:18.135Z,1.60
2019-05-15T17:33:48.775Z,1.63
2019-05-15T17:36:18.382Z,1.67
2019-05-15T17:38:48.316Z,1.73
2019-05-15T17:41:16.374Z,1.87
2019-05-15T17:43:44.764Z,1.90
2019-05-15T17:46:13.192Z,1.60
2019-05-15T17:48:41.685Z,1.50
2019-05-15T17:51:10.182Z,1.30
2019-05-15T17:53:38.865Z,2.17
2019-05-15T17:56:07.294Z,4.00
2019-05-15T17:58:37.971Z,1.50
2019-05-15T18:01:08.546Z,1.90
2019-05-15T18:03:39.016Z,1.70
2019-05-15T18:06:06.581Z,1.90
2019-05-15T18:08:35.283Z,1.80
2019-05-15T18:11:03.752Z,1.70
2019-05-15T18:13:32.382Z,1.40
2019-05-15T18:16:02.938Z,1.60
2019-05-15T18:18:30.954Z,1.50
2019-05-15T18:20:59.472Z,1.80
2019-05-15T18:23:28.036Z,1.73
2019-05-15T18:25:58.386Z,1.67
2019-05-15T18:28:26.810Z,1.97
2019-05-15T18:30:55.403Z,1.40
2019-05-15T18:33:23.851Z,1.50
2019-05-15T18:35:52.206Z,1.33
2019-05-15T18:38:20.732Z,1.50
2019-05-15T18:40:49.270Z,1.50
2019-05-15T18:43:18.233Z,1.67
2019-05-15T18:45:47.739Z,1.60
2019-05-15T18:48:17.879Z,1.53
2019-05-15T18:50:48.235Z,1.60
2019-05-15T18:53:16.722Z,1.47
2019-05-15T18:55:45.161Z,1.77
2019-05-15T18:58:13.547Z,2.00
2019-05-15T19:00:41.995Z,1.50
2019-05-15T19:03:19.462Z,1.30
2019-05-15T19:05:40.822Z,1.30
2019-05-15T19:08:09.382Z,1.60
2019-05-15T19:10:38.549Z,1.70
2019-05-15T19:13:08.507Z,1.37
2019-05-15T19:15:37.965Z,1.50
2019-05-15T19:18:08.009Z,1.50
2019-05-15T19:20:38.823Z,1.53
2019-05-15T19:23:08.022Z,1.53
2019-05-15T19:25:36.638Z,1.40
2019-05-15T19:28:05.065Z,8.43
2019-05-15T19:30:33.490Z,5.30
2019-05-15T19:33:02.117Z,5.30
2019-05-15T19:35:30.580Z,2.93
2019-05-15T19:37:59.051Z,2.77
2019-05-15T19:40:28.476Z,2.77
2019-05-15T19:42:59.090Z,2.03
2019-05-15T19:45:28.206Z,2.47
2019-05-15T19:47:58.742Z,2.60
2019-05-15T19:50:28.848Z,2.80
2019-05-15T19:52:59.069Z,2.33
2019-05-15T19:55:27.378Z,3.00
2019-05-15T19:57:55.774Z,2.43
2019-05-15T20:00:24.293Z,2.40
2019-05-15T20:02:52.694Z,2.00
2019-05-15T20:05:21.150Z,1.70
2019-05-15T20:07:49.586Z,1.90
2019-05-15T20:10:18.700Z,1.80
2019-05-15T20:12:47.986Z,1.97
2019-05-15T20:15:18.821Z,1.97
2019-05-15T20:17:47.843Z,2.00
2019-05-15T20:20:18.243Z,2.07
2019-05-15T20:22:46.668Z,2.10
2019-05-15T20:25:15.148Z,2.27
2019-05-15T20:27:43.704Z,2.10
2019-05-15T20:30:12.439Z,2.07
2019-05-15T20:32:40.897Z,2.40
2019-05-15T20:35:10.079Z,2.10
2019-05-15T20:37:39.872Z,2.50
2019-05-15T20:40:09.730Z,3.17
2019-05-15T20:42:38.673Z,2.60
2019-05-15T20:45:11.206Z,2.30
2019-05-15T20:47:38.856Z,2.00
2019-05-15T20:50:08.637Z,2.10
2019-05-15T20:52:39.518Z,1.97
2019-05-15T20:55:08.044Z,2.03
2019-05-15T20:57:38.478Z,1.83
2019-05-15T21:00:08.046Z,2.27
2019-05-15T21:02:37.982Z,1.83
2019-05-15T21:05:08.681Z,2.10
2019-05-15T21:07:40.105Z,2.87
2019-05-15T21:10:08.496Z,2.63
2019-05-15T21:12:40.475Z,2.60
2019-05-15T21:15:08.580Z,2.53
2019-05-15T21:17:39.543Z,2.40
2019-05-15T21:20:09.459Z,1.90
2019-05-15T21:22:40.369Z,2.00
2019-05-15T21:25:10.326Z,2.30
2019-05-15T21:27:42.703Z,1.90
2019-05-15T21:30:09.027Z,1.83
2019-05-15T21:32:38.262Z,1.93
2019-05-15T21:35:09.182Z,2.10
2019-05-15T21:37:38.812Z,1.77
2019-05-15T21:40:08.901Z,1.93
2019-05-15T21:42:41.722Z,2.30
2019-05-15T21:45:14.386Z,2.20
2019-05-15T21:47:38.907Z,2.00
2019-05-15T21:50:08.037Z,1.87
2019-05-15T21:52:39.119Z,2.10
2019-05-15T21:55:09.307Z,1.90
2019-05-15T21:57:40.326Z,2.53
2019-05-15T22:00:11.565Z,2.60
2019-05-15T22:02:40.064Z,2.07
2019-05-15T22:05:08.804Z,2.03
2019-05-15T22:07:38.823Z,2.20
2019-05-15T22:10:10.349Z,2.17
2019-05-15T22:12:37.908Z,2.17
2019-05-15T22:15:06.806Z,2.57
2019-05-15T22:17:38.754Z,2.03
2019-05-15T22:20:08.671Z,2.40
2019-05-15T22:22:37.529Z,1.67
2019-05-15T22:25:10.887Z,2.43
2019-05-15T22:27:38.301Z,2.00
2019-05-15T22:30:08.293Z,1.77
2019-05-15T22:32:41.252Z,2.43
2019-05-15T22:35:13.408Z,2.00
2019-05-15T22:37:38.781Z,2.33
2019-05-15T22:40:08.906Z,2.50
2019-05-15T22:42:39.072Z,2.10
2019-05-15T22:45:08.994Z,2.30
2019-05-15T22:47:38.972Z,2.00
2019-05-15T22:50:08.374Z,2.10
2019-05-15T22:52:38.801Z,2.10
2019-05-15T22:55:07.502Z,2.03
2019-05-15T22:57:35.942Z,2.10
2019-05-15T23:00:08.472Z,2.53
2019-05-15T23:02:36.098Z,2.00
2019-05-15T23:05:04.935Z,2.30
2019-05-15T23:07:33.384Z,2.63
2019-05-15T23:10:01.861Z,2.20
2019-05-15T23:12:30.279Z,2.13
2019-05-15T23:14:58.751Z,2.50
2019-05-15T23:17:27.751Z,1.93
2019-05-15T23:19:58.170Z,2.40
2019-05-15T23:22:27.928Z,2.20
2019-05-15T23:24:58.399Z,2.83
2019-05-15T23:27:28.617Z,3.07
2019-05-15T23:29:58.196Z,2.90
2019-05-15T23:32:28.755Z,2.73
2019-05-15T23:34:58.430Z,3.03
2019-05-15T23:37:28.059Z,2.77
2019-05-15T23:39:57.973Z,2.53
2019-05-15T23:42:29.012Z,3.00
2019-05-15T23:44:56.619Z,2.97
2019-05-15T23:47:25.066Z,2.87
2019-05-15T23:49:53.508Z,2.80
2019-05-15T23:52:21.858Z,2.80
2019-05-15T23:54:50.299Z,2.57
2019-05-15T23:57:18.663Z,2.60
2019-05-15T23:59:47.747Z,2.60
